sensor_id;sensor_type;location;lat;lon;timestamp;pressure;altitude;pressure_sealevel;temperature;humidity
7614;BME280;3848;42.016;23.098;2022-10-31T00:02:02;97559.78;;;11.36;100.00
7614;BME280;3848;42.016;23.098;2022-10-31T00:04:29;97572.50;;;11.36;100.00
7614;BME280;3848;42.016;23.098;2022-10-31T00:06:56;97567.41;;;11.34;100.00
7614;BME280;3848;42.016;23.098;2022-10-31T00:09:24;97566.59;;;11.32;100.00
7614;BME280;3848;42.016;23.098;2022-10-31T00:11:51;97571.72;;;11.24;100.00
7614;BME280;3848;42.016;23.098;2022-10-31T00:14:18;97569.16;;;11.21;100.00
7614;BME280;3848;42.016;23.098;2022-10-31T00:16:45;97565.78;;;11.18;100.00
7614;BME280;3848;42.016;23.098;2022-10-31T00:19:11;97569.19;;;11.15;100.00
7614;BME280;3848;42.016;23.098;2022-10-31T00:21:38;97578.50;;;11.16;100.00
7614;BME280;3848;42.016;23.098;2022-10-31T00:24:05;97540.41;;;11.01;100.00
7614;BME280;3848;42.016;23.098;2022-10-31T00:26:33;97575.94;;;11.18;100.00
7614;BME280;3848;42.016;23.098;2022-10-31T00:29:00;97573.41;;;11.15;100.00
7614;BME280;3848;42.016;23.098;2022-10-31T00:31:27;97571.72;;;11.14;100.00
7614;BME280;3848;42.016;23.098;2022-10-31T00:33:54;97565.81;;;11.03;100.00
7614;BME280;3848;42.016;23.098;2022-10-31T00:36:21;97569.22;;;11.02;100.00
7614;BME280;3848;42.016;23.098;2022-10-31T00:38:48;97579.38;;;11.00;100.00
7614;BME280;3848;42.016;23.098;2022-10-31T00:41:16;97579.38;;;11.00;100.00
7614;BME280;3848;42.016;23.098;2022-10-31T00:43:45;97558.25;;;10.87;100.00
7614;BME280;3848;42.016;23.098;2022-10-31T00:46:12;97568.41;;;10.93;100.00
7614;BME280;3848;42.016;23.098;2022-10-31T00:48:39;97515.91;;;10.73;100.00
7614;BME280;3848;42.016;23.098;2022-10-31T00:51:06;97563.28;;;11.06;100.00
7614;BME280;3848;42.016;23.098;2022-10-31T00:53:33;97559.91;;;11.00;100.00
7614;BME280;3848;42.016;23.098;2022-10-31T00:56:00;97564.97;;;11.07;100.00
7614;BME280;3848;42.016;23.098;2022-10-31T00:58:27;97553.13;;;10.99;100.00
7614;BME280;3848;42.016;23.098;2022-10-31T01:00:55;97538.72;;;10.97;100.00
7614;BME280;3848;42.016;23.098;2022-10-31T01:03:22;97554.81;;;11.00;100.00
7614;BME280;3848;42.016;23.098;2022-10-31T01:05:57;97559.91;;;11.07;100.00
7614;BME280;3848;42.016;23.098;2022-10-31T01:08:24;97562.44;;;11.07;100.00
7614;BME280;3848;42.016;23.098;2022-10-31T01:11:02;97506.59;;;10.73;100.00
7614;BME280;3848;42.016;23.098;2022-10-31T01:13:29;97557.34;;;11.00;100.00
7614;BME280;3848;42.016;23.098;2022-10-31T01:15:58;97572.63;;;10.94;100.00
7614;BME280;3848;42.016;23.098;2022-10-31T01:18:26;97565.03;;;10.84;100.00
7614;BME280;3848;42.016;23.098;2022-10-31T01:21:00;97560.84;;;10.66;100.00
7614;BME280;3848;42.016;23.098;2022-10-31T01:23:28;97581.16;;;10.72;100.00
7614;BME280;3848;42.016;23.098;2022-10-31T01:26:00;97575.25;;;10.67;100.00
7614;BME280;3848;42.016;23.098;2022-10-31T01:28:27;97586.25;;;10.69;100.00
7614;BME280;3848;42.016;23.098;2022-10-31T01:30:53;97581.16;;;10.60;100.00
7614;BME280;3848;42.016;23.098;2022-10-31T01:33:22;97566.78;;;10.53;100.00
7614;BME280;3848;42.016;23.098;2022-10-31T01:35:48;97568.47;;;10.51;100.00
7614;BME280;3848;42.016;23.098;2022-10-31T01:38:15;97576.09;;;10.54;100.00
7614;BME280;3848;42.016;23.098;2022-10-31T01:40:42;97576.06;;;10.58;100.00
7614;BME280;3848;42.016;23.098;2022-10-31T01:43:12;97573.53;;;10.60;100.00
7614;BME280;3848;42.016;23.098;2022-10-31T01:45:40;97577.75;;;10.59;100.00
7614;BME280;3848;42.016;23.098;2022-10-31T01:48:13;97532.91;;;10.35;100.00
7614;BME280;3848;42.016;23.098;2022-10-31T01:50:44;97561.69;;;10.48;100.00
7614;BME280;3848;42.016;23.098;2022-10-31T01:53:13;97581.16;;;10.61;100.00
7614;BME280;3848;42.016;23.098;2022-10-31T01:55:41;97573.56;;;10.46;100.00
7614;BME280;3848;42.016;23.098;2022-10-31T01:58:13;97585.41;;;10.52;100.00
7614;BME280;3848;42.016;23.098;2022-10-31T02:00:42;97581.16;;;10.55;100.00
7614;BME280;3848;42.016;23.098;2022-10-31T02:03:10;97578.63;;;10.54;100.00
7614;BME280;3848;42.016;23.098;2022-10-31T02:05:37;97582.00;;;10.59;100.00
7614;BME280;3848;42.016;23.098;2022-10-31T02:08:08;97579.47;;;10.63;100.00
7614;BME280;3848;42.016;23.098;2022-10-31T02:10:38;97584.53;;;10.60;100.00
7614;BME280;3848;42.016;23.098;2022-10-31T02:13:07;97564.22;;;10.53;100.00
7614;BME280;3848;42.016;23.098;2022-10-31T02:15:35;97568.47;;;10.54;100.00
7614;BME280;3848;42.016;23.098;2022-10-31T02:18:04;97569.31;;;10.51;100.00
7614;BME280;3848;42.016;23.098;2022-10-31T02:20:35;97570.13;;;10.61;100.00
7614;BME280;3848;42.016;23.098;2022-10-31T02:23:36;97574.38;;;10.59;100.00
7614;BME280;3848;42.016;23.098;2022-10-31T02:26:27;97580.31;;;10.59;100.00
7614;BME280;3848;42.016;23.098;2022-10-31T02:32:31;97576.94;;;10.50;100.00
7614;BME280;3848;42.016;23.098;2022-10-31T02:35:10;97578.66;;;10.45;100.00
7614;BME280;3848;42.016;23.098;2022-10-31T02:37:44;97586.25;;;10.31;100.00
7614;BME280;3848;42.016;23.098;2022-10-31T02:40:17;97577.78;;;10.24;100.00
7614;BME280;3848;42.016;23.098;2022-10-31T02:42:52;97543.03;;;9.93;100.00
7614;BME280;3848;42.016;23.098;2022-10-31T02:45:26;97578.59;;;10.08;100.00
7614;BME280;3848;42.016;23.098;2022-10-31T02:47:59;97552.34;;;9.98;100.00
7614;BME280;3848;42.016;23.098;2022-10-31T02:50:30;97583.66;;;10.14;100.00
7614;BME280;3848;42.016;23.098;2022-10-31T02:52:57;97581.13;;;10.17;100.00
7614;BME280;3848;42.016;23.098;2022-10-31T02:55:47;97579.44;;;10.18;100.00
7614;BME280;3848;42.016;23.098;2022-10-31T02:58:19;97578.59;;;10.19;100.00
7614;BME280;3848;42.016;23.098;2022-10-31T03:00:59;97580.28;;;10.20;100.00
7614;BME280;3848;42.016;23.098;2022-10-31T03:03:33;97575.19;;;10.20;100.00
7614;BME280;3848;42.016;23.098;2022-10-31T03:06:09;97570.97;;;10.17;100.00
7614;BME280;3848;42.016;23.098;2022-10-31T03:08:42;97572.66;;;10.15;100.00
7614;BME280;3848;42.016;23.098;2022-10-31T03:11:13;97585.34;;;10.12;100.00
7614;BME280;3848;42.016;23.098;2022-10-31T03:13:43;97587.91;;;10.15;100.00
7614;BME280;3848;42.016;23.098;2022-10-31T03:16:15;97580.28;;;10.12;100.00
7614;BME280;3848;42.016;23.098;2022-10-31T03:18:49;97576.88;;;10.19;100.00
7614;BME280;3848;42.016;23.098;2022-10-31T03:21:21;97597.22;;;10.18;100.00
7614;BME280;3848;42.016;23.098;2022-10-31T03:23:50;97589.59;;;10.15;100.00
7614;BME280;3848;42.016;23.098;2022-10-31T03:26:19;97599.75;;;10.15;100.00
7614;BME280;3848;42.016;23.098;2022-10-31T03:28:51;97595.50;;;10.20;100.00
7614;BME280;3848;42.016;23.098;2022-10-31T03:31:23;97602.34;;;10.24;100.00
7614;BME280;3848;42.016;23.098;2022-10-31T03:33:54;97595.50;;;10.18;100.00
7614;BME280;3848;42.016;23.098;2022-10-31T03:36:22;97608.22;;;10.15;100.00
7614;BME280;3848;42.016;23.098;2022-10-31T03:38:50;97611.59;;;10.17;100.00
7614;BME280;3848;42.016;23.098;2022-10-31T03:41:21;97612.44;;;10.13;100.00
7614;BME280;3848;42.016;23.098;2022-10-31T03:43:55;97614.97;;;10.19;100.00
7614;BME280;3848;42.016;23.098;2022-10-31T03:46:23;97607.38;;;10.16;100.00
7614;BME280;3848;42.016;23.098;2022-10-31T03:48:51;97622.66;;;10.25;100.00
7614;BME280;3848;42.016;23.098;2022-10-31T03:51:24;97615.88;;;10.33;100.00
7614;BME280;3848;42.016;23.098;2022-10-31T03:53:56;97608.28;;;10.32;100.00
7614;BME280;3848;42.016;23.098;2022-10-31T03:56:31;97615.88;;;10.33;100.00
7614;BME280;3848;42.016;23.098;2022-10-31T03:59:04;97615.03;;;10.31;100.00
7614;BME280;3848;42.016;23.098;2022-10-31T04:01:34;97615.03;;;10.28;100.00
7614;BME280;3848;42.016;23.098;2022-10-31T04:04:04;97626.03;;;10.36;100.00
7614;BME280;3848;42.016;23.098;2022-10-31T04:06:34;97620.13;;;10.34;100.00
7614;BME280;3848;42.016;23.098;2022-10-31T04:09:05;97622.66;;;10.37;100.00
7614;BME280;3848;42.016;23.098;2022-10-31T04:11:35;97628.59;;;10.35;100.00
7614;BME280;3848;42.016;23.098;2022-10-31T04:14:04;97613.34;;;10.26;100.00
7614;BME280;3848;42.016;23.098;2022-10-31T04:16:31;97625.19;;;10.34;100.00
7614;BME280;3848;42.016;23.098;2022-10-31T04:18:58;97618.44;;;10.29;100.00
7614;BME280;3848;42.016;23.098;2022-10-31T04:21:28;97626.03;;;10.35;100.00
7614;BME280;3848;42.016;23.098;2022-10-31T04:23:57;97631.97;;;10.31;100.00
7614;BME280;3848;42.016;23.098;2022-10-31T04:26:24;97631.13;;;10.30;100.00
7614;BME280;3848;42.016;23.098;2022-10-31T04:28:50;97637.91;;;10.25;100.00
7614;BME280;3848;42.016;23.098;2022-10-31T04:31:17;97633.59;;;10.17;100.00
7614;BME280;3848;42.016;23.098;2022-10-31T04:33:44;97628.53;;;10.17;100.00
7614;BME280;3848;42.016;23.098;2022-10-31T04:36:11;97622.59;;;10.08;100.00
7614;BME280;3848;42.016;23.098;2022-10-31T04:38:38;97631.91;;;10.17;100.00
7614;BME280;3848;42.016;23.098;2022-10-31T04:41:06;97631.91;;;10.16;100.00
7614;BME280;3848;42.016;23.098;2022-10-31T04:43:33;97635.31;;;10.15;100.00
7614;BME280;3848;42.016;23.098;2022-10-31T04:45:59;97635.31;;;10.15;100.00
7614;BME280;3848;42.016;23.098;2022-10-31T04:48:26;97639.53;;;10.14;100.00
7614;BME280;3848;42.016;23.098;2022-10-31T04:50:58;97634.44;;;10.17;100.00
7614;BME280;3848;42.016;23.098;2022-10-31T04:53:25;97614.97;;;10.02;100.00
7614;BME280;3848;42.016;23.098;2022-10-31T04:55:51;97637.84;;;10.19;100.00
7614;BME280;3848;42.016;23.098;2022-10-31T04:58:20;97650.59;;;10.28;100.00
7614;BME280;3848;42.016;23.098;2022-10-31T05:00:46;97652.28;;;10.25;100.00
7614;BME280;3848;42.016;23.098;2022-10-31T05:03:13;97658.16;;;10.19;100.00
7614;BME280;3848;42.016;23.098;2022-10-31T05:05:41;97645.53;;;10.22;100.00
7614;BME280;3848;42.016;23.098;2022-10-31T05:08:08;97648.06;;;10.22;100.00
7614;BME280;3848;42.016;23.098;2022-10-31T05:10:34;97638.69;;;10.15;100.00
7614;BME280;3848;42.016;23.098;2022-10-31T05:13:03;97651.44;;;10.21;100.00
7614;BME280;3848;42.016;23.098;2022-10-31T05:15:32;97658.16;;;10.18;100.00
7614;BME280;3848;42.016;23.098;2022-10-31T05:17:59;97658.16;;;10.16;100.00
7614;BME280;3848;42.016;23.098;2022-10-31T05:20:28;97663.22;;;10.19;100.00
7614;BME280;3848;42.016;23.098;2022-10-31T05:22:56;97618.34;;;9.97;100.00
7614;BME280;3848;42.016;23.098;2022-10-31T05:25:24;97665.00;;;10.26;100.00
7614;BME280;3848;42.016;23.098;2022-10-31T05:27:52;97647.22;;;10.25;100.00
7614;BME280;3848;42.016;23.098;2022-10-31T05:30:20;97665.84;;;10.33;100.00
7614;BME280;3848;42.016;23.098;2022-10-31T05:32:50;97659.06;;;10.32;100.00
7614;BME280;3848;42.016;23.098;2022-10-31T05:35:19;97659.91;;;10.34;100.00
7614;BME280;3848;42.016;23.098;2022-10-31T05:37:46;97659.91;;;10.32;100.00
7614;BME280;3848;42.016;23.098;2022-10-31T05:40:14;97664.16;;;10.30;100.00
7614;BME280;3848;42.016;23.098;2022-10-31T05:42:41;97662.47;;;10.37;100.00
7614;BME280;3848;42.016;23.098;2022-10-31T05:45:09;97670.06;;;10.38;100.00
7614;BME280;3848;42.016;23.098;2022-10-31T05:47:37;97665.88;;;10.45;100.00
7614;BME280;3848;42.016;23.098;2022-10-31T05:50:07;97672.66;;;10.48;100.00
7614;BME280;3848;42.016;23.098;2022-10-31T05:52:35;97665.00;;;10.54;100.00
7614;BME280;3848;42.016;23.098;2022-10-31T05:55:02;97669.25;;;10.55;100.00
7614;BME280;3848;42.016;23.098;2022-10-31T05:57:31;97655.69;;;10.50;100.00
7614;BME280;3848;42.016;23.098;2022-10-31T05:59:59;97677.72;;;10.58;100.00
7614;BME280;3848;42.016;23.098;2022-10-31T06:02:25;97678.56;;;10.60;100.00
7614;BME280;3848;42.016;23.098;2022-10-31T06:04:56;97664.16;;;10.58;100.00
7614;BME280;3848;42.016;23.098;2022-10-31T06:07:25;97680.28;;;10.63;100.00
7614;BME280;3848;42.016;23.098;2022-10-31T06:09:51;97679.44;;;10.68;100.00
7614;BME280;3848;42.016;23.098;2022-10-31T06:12:18;97683.66;;;10.71;100.00
7614;BME280;3848;42.016;23.098;2022-10-31T06:14:45;97677.72;;;10.75;100.00
7614;BME280;3848;42.016;23.098;2022-10-31T06:17:12;97689.63;;;10.84;100.00
7614;BME280;3848;42.016;23.098;2022-10-31T06:19:39;97688.75;;;10.89;100.00
7614;BME280;3848;42.016;23.098;2022-10-31T06:22:07;97685.38;;;10.89;100.00
7614;BME280;3848;42.016;23.098;2022-10-31T06:24:38;97692.13;;;11.00;100.00
7614;BME280;3848;42.016;23.098;2022-10-31T06:27:05;97707.38;;;11.02;100.00
7614;BME280;3848;42.016;23.098;2022-10-31T06:29:32;97705.69;;;11.03;100.00
7614;BME280;3848;42.016;23.098;2022-10-31T06:31:58;97705.69;;;11.07;100.00
7614;BME280;3848;42.016;23.098;2022-10-31T06:34:25;97701.44;;;10.98;100.00
7614;BME280;3848;42.016;23.098;2022-10-31T06:36:52;97705.69;;;10.93;100.00
7614;BME280;3848;42.016;23.098;2022-10-31T06:39:19;97697.22;;;10.94;100.00
7614;BME280;3848;42.016;23.098;2022-10-31T06:41:48;97709.09;;;11.06;100.00
7614;BME280;3848;42.016;23.098;2022-10-31T06:44:15;97713.31;;;11.16;100.00
7614;BME280;3848;42.016;23.098;2022-10-31T06:46:42;97694.66;;;11.19;100.00
7614;BME280;3848;42.016;23.098;2022-10-31T06:49:08;97704.84;;;11.17;100.00
7614;BME280;3848;42.016;23.098;2022-10-31T06:51:36;97710.78;;;10.99;100.00
7614;BME280;3848;42.016;23.098;2022-10-31T06:54:03;97702.31;;;10.79;100.00
7614;BME280;3848;42.016;23.098;2022-10-31T06:56:29;97695.50;;;10.54;100.00
7614;BME280;3848;42.016;23.098;2022-10-31T06:58:58;97698.06;;;10.58;100.00
7614;BME280;3848;42.016;23.098;2022-10-31T07:01:25;97702.28;;;10.52;100.00
7614;BME280;3848;42.016;23.098;2022-10-31T07:03:51;97706.53;;;10.48;100.00
7614;BME280;3848;42.016;23.098;2022-10-31T07:06:18;97699.75;;;10.52;100.00
7614;BME280;3848;42.016;23.098;2022-10-31T07:08:45;97698.03;;;10.60;100.00
7614;BME280;3848;42.016;23.098;2022-10-31T07:11:12;97708.22;;;10.75;100.00
7614;BME280;3848;42.016;23.098;2022-10-31T07:13:39;97707.38;;;10.73;100.00
7614;BME280;3848;42.016;23.098;2022-10-31T07:16:07;97697.22;;;10.70;100.00
7614;BME280;3848;42.016;23.098;2022-10-31T07:18:37;97703.16;;;10.74;100.00
7614;BME280;3848;42.016;23.098;2022-10-31T07:21:04;97712.47;;;10.76;100.00
7614;BME280;3848;42.016;23.098;2022-10-31T07:23:31;97706.53;;;10.76;100.00
7614;BME280;3848;42.016;23.098;2022-10-31T07:25:59;97698.91;;;10.74;100.00
7614;BME280;3848;42.016;23.098;2022-10-31T07:28:26;97698.91;;;10.77;100.00
7614;BME280;3848;42.016;23.098;2022-10-31T07:30:55;97687.06;;;10.70;100.00
7614;BME280;3848;42.016;23.098;2022-10-31T07:33:23;97708.25;;;10.93;100.00
7614;BME280;3848;42.016;23.098;2022-10-31T07:35:52;97707.38;;;11.10;100.00
7614;BME280;3848;42.016;23.098;2022-10-31T07:38:19;97692.94;;;11.24;100.00
7614;BME280;3848;42.016;23.098;2022-10-31T07:40:49;97690.41;;;11.24;100.00
7614;BME280;3848;42.016;23.098;2022-10-31T07:43:18;97692.97;;;11.27;100.00
7614;BME280;3848;42.016;23.098;2022-10-31T07:45:49;97698.88;;;11.35;100.00
7614;BME280;3848;42.016;23.098;2022-10-31T07:48:16;97697.16;;;11.43;100.00
7614;BME280;3848;42.016;23.098;2022-10-31T07:50:44;97696.25;;;11.61;100.00
7614;BME280;3848;42.016;23.098;2022-10-31T07:53:12;97687.75;;;11.70;100.00
7614;BME280;3848;42.016;23.098;2022-10-31T07:55:39;97651.25;;;11.65;100.00
7614;BME280;3848;42.016;23.098;2022-10-31T07:58:08;97690.22;;;11.94;100.00
7614;BME280;3848;42.016;23.098;2022-10-31T08:00:36;97689.28;;;12.15;100.00
7614;BME280;3848;42.016;23.098;2022-10-31T08:03:04;97678.19;;;12.24;100.00
7614;BME280;3848;42.016;23.098;2022-10-31T08:05:32;97690.78;;;12.45;100.00
7614;BME280;3848;42.016;23.098;2022-10-31T08:08:01;97679.66;;;12.58;100.00
7614;BME280;3848;42.016;23.098;2022-10-31T08:10:29;97681.22;;;12.77;100.00
7614;BME280;3848;42.016;23.098;2022-10-31T08:13:00;97685.34;;;12.95;100.00
7614;BME280;3848;42.016;23.098;2022-10-31T08:15:27;97681.75;;;13.19;100.00
7614;BME280;3848;42.016;23.098;2022-10-31T08:17:54;97672.22;;;13.36;100.00
7614;BME280;3848;42.016;23.098;2022-10-31T08:20:21;97663.47;;;13.59;100.00
7614;BME280;3848;42.016;23.098;2022-10-31T08:22:55;97656.44;;;13.76;100.00
7614;BME280;3848;42.016;23.098;2022-10-31T08:25:25;97651.19;;;13.87;100.00
7614;BME280;3848;42.016;23.098;2022-10-31T08:27:53;97661.91;;;14.13;100.00
7614;BME280;3848;42.016;23.098;2022-10-31T08:30:23;97650.47;;;14.40;100.00
7614;BME280;3848;42.016;23.098;2022-10-31T08:32:58;97657.81;;;14.63;100.00
7614;BME280;3848;42.016;23.098;2022-10-31T08:35:25;97665.91;;;14.89;100.00
7614;BME280;3848;42.016;23.098;2022-10-31T08:37:52;97658.69;;;15.13;100.00
7614;BME280;3848;42.016;23.098;2022-10-31T08:40:20;97631.81;;;15.35;100.00
7614;BME280;3848;42.016;23.098;2022-10-31T08:42:55;97648.34;;;15.65;100.00
7614;BME280;3848;42.016;23.098;2022-10-31T08:45:22;97648.81;;;15.84;100.00
7614;BME280;3848;42.016;23.098;2022-10-31T08:47:49;97645.81;;;16.05;100.00
7614;BME280;3848;42.016;23.098;2022-10-31T08:50:16;97629.16;;;16.23;100.00
7614;BME280;3848;42.016;23.098;2022-10-31T08:52:43;97633.78;;;16.44;100.00
7614;BME280;3848;42.016;23.098;2022-10-31T08:55:13;97639.19;;;16.71;100.00
7614;BME280;3848;42.016;23.098;2022-10-31T08:57:40;97637.75;;;16.95;100.00
7614;BME280;3848;42.016;23.098;2022-10-31T09:00:09;97631.41;;;17.08;100.00
7614;BME280;3848;42.016;23.098;2022-10-31T09:02:36;97634.44;;;17.22;100.00
7614;BME280;3848;42.016;23.098;2022-10-31T09:05:04;97627.75;;;17.49;97.11
7614;BME280;3848;42.016;23.098;2022-10-31T09:07:31;97630.38;;;18.07;89.98
7614;BME280;3848;42.016;23.098;2022-10-31T09:09:58;97621.97;;;18.84;88.18
7614;BME280;3848;42.016;23.098;2022-10-31T09:12:24;97615.59;;;19.92;73.53
7614;BME280;3848;42.016;23.098;2022-10-31T09:14:51;97616.34;;;20.61;64.33
7614;BME280;3848;42.016;23.098;2022-10-31T09:17:19;97601.72;;;21.02;64.09
7614;BME280;3848;42.016;23.098;2022-10-31T09:19:46;97599.91;;;21.45;62.92
7614;BME280;3848;42.016;23.098;2022-10-31T09:22:13;97598.53;;;21.95;61.25
7614;BME280;3848;42.016;23.098;2022-10-31T09:24:40;97585.72;;;22.46;57.39
7614;BME280;3848;42.016;23.098;2022-10-31T09:27:07;97586.16;;;22.56;57.01
7614;BME280;3848;42.016;23.098;2022-10-31T09:29:34;97584.28;;;22.94;54.01
7614;BME280;3848;42.016;23.098;2022-10-31T09:32:01;97576.38;;;23.63;54.19
7614;BME280;3848;42.016;23.098;2022-10-31T09:34:29;97579.06;;;24.09;51.79
7614;BME280;3848;42.016;23.098;2022-10-31T09:37:03;97579.50;;;24.17;49.76
7614;BME280;3848;42.016;23.098;2022-10-31T09:39:30;97584.50;;;24.36;50.54
7614;BME280;3848;42.016;23.098;2022-10-31T09:42:10;97574.53;;;24.74;50.18
7614;BME280;3848;42.016;23.098;2022-10-31T09:44:50;97560.09;;;24.84;48.90
7614;BME280;3848;42.016;23.098;2022-10-31T09:47:27;97556.81;;;25.11;47.48
7614;BME280;3848;42.016;23.098;2022-10-31T09:50:11;97561.75;;;25.44;46.04
7614;BME280;3848;42.016;23.098;2022-10-31T09:52:43;97550.59;;;25.85;45.31
7614;BME280;3848;42.016;23.098;2022-10-31T09:55:15;97548.84;;;25.71;45.45
7614;BME280;3848;42.016;23.098;2022-10-31T09:57:44;97533.44;;;25.95;44.33
7614;BME280;3848;42.016;23.098;2022-10-31T10:00:16;97539.72;;;26.59;44.63
7614;BME280;3848;42.016;23.098;2022-10-31T10:02:47;97537.38;;;27.19;43.18
7614;BME280;3848;42.016;23.098;2022-10-31T10:05:21;97534.44;;;27.24;43.09
7614;BME280;3848;42.016;23.098;2022-10-31T10:07:55;97521.31;;;27.25;41.87
7614;BME280;3848;42.016;23.098;2022-10-31T10:10:33;97525.63;;;27.76;41.37
7614;BME280;3848;42.016;23.098;2022-10-31T10:13:20;97518.38;;;28.16;42.31
7614;BME280;3848;42.016;23.098;2022-10-31T10:15:59;97513.56;;;28.10;40.10
7614;BME280;3848;42.016;23.098;2022-10-31T10:18:35;97519.34;;;28.39;40.34
7614;BME280;3848;42.016;23.098;2022-10-31T10:21:21;97522.31;;;28.45;40.08
7614;BME280;3848;42.016;23.098;2022-10-31T10:24:01;97503.13;;;27.86;40.08
7614;BME280;3848;42.016;23.098;2022-10-31T10:26:36;97458.81;;;28.08;39.99
7614;BME280;3848;42.016;23.098;2022-10-31T10:29:14;97497.25;;;29.11;38.21
7614;BME280;3848;42.016;23.098;2022-10-31T10:31:44;97502.03;;;29.06;38.13
7614;BME280;3848;42.016;23.098;2022-10-31T10:34:18;97498.78;;;28.45;39.40
7614;BME280;3848;42.016;23.098;2022-10-31T10:36:51;97493.91;;;28.87;38.54
7614;BME280;3848;42.016;23.098;2022-10-31T10:39:24;97493.13;;;29.20;37.76
7614;BME280;3848;42.016;23.098;2022-10-31T10:41:52;97480.47;;;29.14;37.74
7614;BME280;3848;42.016;23.098;2022-10-31T10:44:38;97472.22;;;28.85;38.01
7614;BME280;3848;42.016;23.098;2022-10-31T10:47:25;97483.81;;;29.38;38.02
7614;BME280;3848;42.016;23.098;2022-10-31T10:50:09;97478.66;;;29.70;36.93
7614;BME280;3848;42.016;23.098;2022-10-31T10:52:43;97468.34;;;29.13;37.50
7614;BME280;3848;42.016;23.098;2022-10-31T10:55:17;97443.25;;;29.10;37.93
7614;BME280;3848;42.016;23.098;2022-10-31T10:57:55;97433.47;;;29.24;37.48
7614;BME280;3848;42.016;23.098;2022-10-31T11:00:24;97466.19;;;29.40;37.67
7614;BME280;3848;42.016;23.098;2022-10-31T11:02:52;97447.66;;;29.21;37.84
7614;BME280;3848;42.016;23.098;2022-10-31T11:05:25;97442.03;;;29.48;37.54
7614;BME280;3848;42.016;23.098;2022-10-31T11:07:54;97442.09;;;29.80;36.95
7614;BME280;3848;42.016;23.098;2022-10-31T11:10:21;97449.25;;;29.78;36.60
7614;BME280;3848;42.016;23.098;2022-10-31T11:13:01;97445.13;;;29.53;37.45
7614;BME280;3848;42.016;23.098;2022-10-31T11:15:31;97442.38;;;29.32;37.41
7614;BME280;3848;42.016;23.098;2022-10-31T11:17:59;97435.59;;;29.52;36.95
7614;BME280;3848;42.016;23.098;2022-10-31T11:20:30;97432.38;;;29.60;37.79
7614;BME280;3848;42.016;23.098;2022-10-31T11:23:04;97441.09;;;29.49;37.08
7614;BME280;3848;42.016;23.098;2022-10-31T11:25:32;97420.44;;;29.67;37.05
7614;BME280;3848;42.016;23.098;2022-10-31T11:28:00;97427.28;;;29.90;36.25
7614;BME280;3848;42.016;23.098;2022-10-31T11:30:27;97423.81;;;29.90;35.96
7614;BME280;3848;42.016;23.098;2022-10-31T11:32:54;97422.97;;;29.89;36.43
7614;BME280;3848;42.016;23.098;2022-10-31T11:35:23;97421.66;;;30.06;35.85
7614;BME280;3848;42.016;23.098;2022-10-31T11:37:53;97364.47;;;30.00;36.14
7614;BME280;3848;42.016;23.098;2022-10-31T11:40:24;97397.13;;;30.17;35.70
7614;BME280;3848;42.016;23.098;2022-10-31T11:42:54;97371.44;;;30.11;36.50
7614;BME280;3848;42.016;23.098;2022-10-31T11:45:29;97394.59;;;30.47;35.42
7614;BME280;3848;42.016;23.098;2022-10-31T11:47:58;97388.53;;;30.56;35.40
7614;BME280;3848;42.016;23.098;2022-10-31T11:50:31;97384.53;;;30.52;35.36
7614;BME280;3848;42.016;23.098;2022-10-31T11:53:00;97379.69;;;30.69;35.23
7614;BME280;3848;42.016;23.098;2022-10-31T11:55:34;97372.78;;;30.47;35.31
7614;BME280;3848;42.016;23.098;2022-10-31T11:58:01;97382.72;;;30.53;34.75
7614;BME280;3848;42.016;23.098;2022-10-31T12:00:29;97386.88;;;30.55;35.45
7614;BME280;3848;42.016;23.098;2022-10-31T12:03:13;97374.19;;;30.60;35.27
7614;BME280;3848;42.016;23.098;2022-10-31T12:05:42;97382.00;;;30.62;34.81
7614;BME280;3848;42.016;23.098;2022-10-31T12:08:12;97376.16;;;30.38;34.89
7614;BME280;3848;42.016;23.098;2022-10-31T12:10:47;97380.34;;;29.87;36.22
7614;BME280;3848;42.016;23.098;2022-10-31T12:13:32;97384.34;;;29.16;35.64
7614;BME280;3848;42.016;23.098;2022-10-31T12:16:05;97350.69;;;28.56;36.95
7614;BME280;3848;42.016;23.098;2022-10-31T12:18:46;97387.00;;;28.25;37.85
7614;BME280;3848;42.016;23.098;2022-10-31T12:21:27;97369.44;;;27.92;38.44
7614;BME280;3848;42.016;23.098;2022-10-31T12:24:08;97375.19;;;27.73;37.93
7614;BME280;3848;42.016;23.098;2022-10-31T12:26:47;97363.84;;;27.38;38.95
7614;BME280;3848;42.016;23.098;2022-10-31T12:29:26;97364.66;;;27.14;39.39
7614;BME280;3848;42.016;23.098;2022-10-31T12:32:13;97364.97;;;26.97;39.89
7614;BME280;3848;42.016;23.098;2022-10-31T12:34:55;97362.28;;;26.86;39.93
7614;BME280;3848;42.016;23.098;2022-10-31T12:37:38;97360.53;;;26.73;39.50
7614;BME280;3848;42.016;23.098;2022-10-31T12:40:23;97348.88;;;26.54;39.56
7614;BME280;3848;42.016;23.098;2022-10-31T12:43:03;97356.59;;;26.42;39.00
7614;BME280;3848;42.016;23.098;2022-10-31T12:45:48;97348.47;;;26.34;39.22
7614;BME280;3848;42.016;23.098;2022-10-31T12:48:28;97356.06;;;26.25;39.42
7614;BME280;3848;42.016;23.098;2022-10-31T12:51:02;97351.66;;;26.12;39.76
7614;BME280;3848;42.016;23.098;2022-10-31T12:53:45;97352.06;;;26.06;40.08
7614;BME280;3848;42.016;23.098;2022-10-31T12:56:27;97340.59;;;25.96;40.08
7614;BME280;3848;42.016;23.098;2022-10-31T12:59:04;97353.50;;;25.98;40.95
7614;BME280;3848;42.016;23.098;2022-10-31T13:01:35;97348.19;;;25.87;40.48
7614;BME280;3848;42.016;23.098;2022-10-31T13:04:11;97350.34;;;25.80;40.47
7614;BME280;3848;42.016;23.098;2022-10-31T13:06:42;97354.28;;;25.73;40.71
7614;BME280;3848;42.016;23.098;2022-10-31T13:09:16;97348.47;;;25.55;41.24
7614;BME280;3848;42.016;23.098;2022-10-31T13:11:47;97360.88;;;25.51;41.48
7614;BME280;3848;42.016;23.098;2022-10-31T13:14:24;97362.94;;;25.46;41.43
7614;BME280;3848;42.016;23.098;2022-10-31T13:16:55;97352.47;;;25.34;41.94
7614;BME280;3848;42.016;23.098;2022-10-31T13:19:25;97362.03;;;25.33;41.59
7614;BME280;3848;42.016;23.098;2022-10-31T13:21:59;97356.69;;;25.22;41.71
7614;BME280;3848;42.016;23.098;2022-10-31T13:24:31;97349.81;;;25.21;41.62
7614;BME280;3848;42.016;23.098;2022-10-31T13:27:02;97343.50;;;25.25;41.34